sensor_id;sensor_type;location;lat;lon;timestamp;pressure;altitude;pressure_sealevel;temperature;humidity
14273;BME280;7220;49.450;11.052;2023-01-10T00:01:53;97676.09;;;5.50;100.00
14273;BME280;7220;49.450;11.052;2023-01-10T00:05:55;97684.69;;;5.55;100.00
14273;BME280;7220;49.450;11.052;2023-01-10T00:09:56;97692.53;;;5.57;100.00
14273;BME280;7220;49.450;11.052;2023-01-10T00:13:56;97686.41;;;5.56;100.00
14273;BME280;7220;49.450;11.052;2023-01-10T00:17:56;97705.09;;;5.50;100.00
14273;BME280;7220;49.450;11.052;2023-01-10T00:21:56;97713.72;;;5.53;100.00
14273;BME280;7220;49.450;11.052;2023-01-10T00:26:01;97724.94;;;5.59;100.00
14273;BME280;7220;49.450;11.052;2023-01-10T00:30:03;97722.31;;;5.59;100.00
14273;BME280;7220;49.450;11.052;2023-01-10T00:34:13;97718.63;;;5.63;100.00
14273;BME280;7220;49.450;11.052;2023-01-10T00:38:14;97727.34;;;5.65;100.00
14273;BME280;7220;49.450;11.052;2023-01-10T00:42:14;97739.72;;;5.63;100.00
14273;BME280;7220;49.450;11.052;2023-01-10T00:46:33;97739.84;;;5.60;100.00
14273;BME280;7220;49.450;11.052;2023-01-10T00:50:34;97733.84;;;5.56;100.00
14273;BME280;7220;49.450;11.052;2023-01-10T00:54:34;97744.31;;;5.58;100.00
14273;BME280;7220;49.450;11.052;2023-01-10T00:58:34;97751.44;;;5.56;100.00
14273;BME280;7220;49.450;11.052;2023-01-10T01:02:35;97767.16;;;5.57;100.00
14273;BME280;7220;49.450;11.052;2023-01-10T01:06:35;97762.88;;;5.55;100.00
14273;BME280;7220;49.450;11.052;2023-01-10T01:10:36;97773.56;;;5.51;100.00
14273;BME280;7220;49.450;11.052;2023-01-10T01:14:36;97785.84;;;5.52;100.00
14273;BME280;7220;49.450;11.052;2023-01-10T01:18:36;97790.22;;;5.52;100.00
14273;BME280;7220;49.450;11.052;2023-01-10T01:22:36;97794.75;;;5.48;100.00
14273;BME280;7220;49.450;11.052;2023-01-10T01:26:37;97810.81;;;5.42;100.00
14273;BME280;7220;49.450;11.052;2023-01-10T01:30:38;97809.22;;;5.38;100.00
14273;BME280;7220;49.450;11.052;2023-01-10T01:34:39;97820.75;;;5.35;100.00
14273;BME280;7220;49.450;11.052;2023-01-10T01:38:40;97824.34;;;5.33;100.00
14273;BME280;7220;49.450;11.052;2023-01-10T01:42:41;97834.09;;;5.31;100.00
14273;BME280;7220;49.450;11.052;2023-01-10T01:46:45;97837.78;;;5.27;100.00
14273;BME280;7220;49.450;11.052;2023-01-10T01:54:53;97843.28;;;5.20;100.00
14273;BME280;7220;49.450;11.052;2023-01-10T01:59:06;97855.50;;;5.21;100.00
14273;BME280;7220;49.450;11.052;2023-01-10T02:03:08;97848.59;;;5.19;100.00
14273;BME280;7220;49.450;11.052;2023-01-10T02:07:11;97852.03;;;5.21;100.00
14273;BME280;7220;49.450;11.052;2023-01-10T02:11:12;97861.72;;;5.20;100.00
14273;BME280;7220;49.450;11.052;2023-01-10T02:15:14;97872.19;;;5.22;100.00
14273;BME280;7220;49.450;11.052;2023-01-10T02:23:48;97891.47;;;5.22;100.00
14273;BME280;7220;49.450;11.052;2023-01-10T02:32:35;97876.47;;;5.25;100.00
14273;BME280;7220;49.450;11.052;2023-01-10T02:37:07;97888.06;;;5.20;100.00
14273;BME280;7220;49.450;11.052;2023-01-10T02:49:20;97905.53;;;5.23;100.00
14273;BME280;7220;49.450;11.052;2023-01-10T02:53:35;97907.19;;;5.26;100.00
14273;BME280;7220;49.450;11.052;2023-01-10T02:57:51;97917.66;;;5.27;100.00
14273;BME280;7220;49.450;11.052;2023-01-10T03:02:15;97923.81;;;5.28;100.00
14273;BME280;7220;49.450;11.052;2023-01-10T03:06:47;97924.47;;;5.33;100.00
14273;BME280;7220;49.450;11.052;2023-01-10T03:10:57;97934.09;;;5.34;100.00
14273;BME280;7220;49.450;11.052;2023-01-10T03:14:59;97944.41;;;5.40;100.00
14273;BME280;7220;49.450;11.052;2023-01-10T03:19:07;97946.16;;;5.41;100.00
14273;BME280;7220;49.450;11.052;2023-01-10T03:23:08;97940.97;;;5.38;100.00
14273;BME280;7220;49.450;11.052;2023-01-10T03:27:23;97947.06;;;5.40;100.00
14273;BME280;7220;49.450;11.052;2023-01-10T03:31:31;97954.72;;;5.46;100.00
14273;BME280;7220;49.450;11.052;2023-01-10T03:35:58;97979.25;;;5.48;100.00
14273;BME280;7220;49.450;11.052;2023-01-10T03:44:37;97995.00;;;5.50;100.00
14273;BME280;7220;49.450;11.052;2023-01-10T03:48:46;98000.34;;;5.48;100.00
14273;BME280;7220;49.450;11.052;2023-01-10T03:52:47;98014.44;;;5.47;100.00
14273;BME280;7220;49.450;11.052;2023-01-10T03:56:49;98024.06;;;5.48;100.00
14273;BME280;7220;49.450;11.052;2023-01-10T04:00:49;98032.81;;;5.49;100.00
14273;BME280;7220;49.450;11.052;2023-01-10T04:04:50;98035.59;;;5.46;100.00
14273;BME280;7220;49.450;11.052;2023-01-10T04:08:50;98049.91;;;5.39;100.00
14273;BME280;7220;49.450;11.052;2023-01-10T04:12:50;98052.63;;;5.35;100.00
14273;BME280;7220;49.450;11.052;2023-01-10T04:16:51;98067.59;;;5.35;100.00
14273;BME280;7220;49.450;11.052;2023-01-10T04:20:51;98062.03;;;5.43;100.00
14273;BME280;7220;49.450;11.052;2023-01-10T04:24:51;98065.31;;;5.49;100.00
14273;BME280;7220;49.450;11.052;2023-01-10T04:28:52;98081.97;;;5.51;100.00
14273;BME280;7220;49.450;11.052;2023-01-10T04:32:53;98095.00;;;5.55;100.00
14273;BME280;7220;49.450;11.052;2023-01-10T04:36:53;98090.06;;;5.45;100.00
14273;BME280;7220;49.450;11.052;2023-01-10T04:40:55;98105.78;;;5.48;100.00
14273;BME280;7220;49.450;11.052;2023-01-10T04:44:56;98107.50;;;5.49;100.00
14273;BME280;7220;49.450;11.052;2023-01-10T04:48:56;98116.38;;;5.47;100.00
14273;BME280;7220;49.450;11.052;2023-01-10T04:52:57;98130.34;;;5.49;100.00
14273;BME280;7220;49.450;11.052;2023-01-10T04:56:58;98132.13;;;5.48;100.00
14273;BME280;7220;49.450;11.052;2023-01-10T05:00:58;98140.03;;;5.48;100.00
14273;BME280;7220;49.450;11.052;2023-01-10T05:04:58;98145.31;;;5.48;100.00
14273;BME280;7220;49.450;11.052;2023-01-10T05:08:59;98147.09;;;5.48;100.00
14273;BME280;7220;49.450;11.052;2023-01-10T05:12:59;98159.41;;;5.47;100.00
14273;BME280;7220;49.450;11.052;2023-01-10T05:16:59;98178.75;;;5.46;100.00
14273;BME280;7220;49.450;11.052;2023-01-10T05:21:05;98188.38;;;5.47;100.00
14273;BME280;7220;49.450;11.052;2023-01-10T05:25:06;98185.06;;;5.42;100.00
14273;BME280;7220;49.450;11.052;2023-01-10T05:29:11;98190.41;;;5.39;100.00
14273;BME280;7220;49.450;11.052;2023-01-10T05:33:13;98200.00;;;5.42;100.00
14273;BME280;7220;49.450;11.052;2023-01-10T05:37:13;98205.31;;;5.40;100.00
14273;BME280;7220;49.450;11.052;2023-01-10T05:41:14;98213.31;;;5.37;100.00
14273;BME280;7220;49.450;11.052;2023-01-10T05:45:14;98229.13;;;5.37;100.00
14273;BME280;7220;49.450;11.052;2023-01-10T05:49:14;98248.41;;;5.39;100.00
14273;BME280;7220;49.450;11.052;2023-01-10T05:53:15;98248.31;;;5.42;100.00
14273;BME280;7220;49.450;11.052;2023-01-10T05:57:15;98254.56;;;5.38;100.00
14273;BME280;7220;49.450;11.052;2023-01-10T06:01:16;98264.22;;;5.39;100.00
14273;BME280;7220;49.450;11.052;2023-01-10T06:05:16;98275.56;;;5.41;100.00
14273;BME280;7220;49.450;11.052;2023-01-10T06:09:16;98285.28;;;5.41;100.00
14273;BME280;7220;49.450;11.052;2023-01-10T06:13:17;98289.59;;;5.42;100.00
14273;BME280;7220;49.450;11.052;2023-01-10T06:17:17;98296.72;;;5.40;100.00
14273;BME280;7220;49.450;11.052;2023-01-10T06:21:17;98309.91;;;5.38;100.00
14273;BME280;7220;49.450;11.052;2023-01-10T06:25:18;98302.13;;;5.35;100.00
14273;BME280;7220;49.450;11.052;2023-01-10T06:29:20;98304.75;;;5.35;100.00
14273;BME280;7220;49.450;11.052;2023-01-10T06:33:21;98317.03;;;5.36;100.00
14273;BME280;7220;49.450;11.052;2023-01-10T06:37:21;98335.47;;;5.36;100.00
14273;BME280;7220;49.450;11.052;2023-01-10T06:41:22;98350.34;;;5.37;100.00
14273;BME280;7220;49.450;11.052;2023-01-10T06:45:22;98367.81;;;5.41;100.00
14273;BME280;7220;49.450;11.052;2023-01-10T06:49:22;98382.72;;;5.42;100.00
14273;BME280;7220;49.450;11.052;2023-01-10T06:53:23;98377.47;;;5.42;100.00
14273;BME280;7220;49.450;11.052;2023-01-10T06:57:23;98389.72;;;5.43;100.00
14273;BME280;7220;49.450;11.052;2023-01-10T07:01:23;98401.22;;;5.41;100.00
14273;BME280;7220;49.450;11.052;2023-01-10T07:05:24;98405.75;;;5.35;100.00
14273;BME280;7220;49.450;11.052;2023-01-10T07:09:25;98411.91;;;5.36;100.00
14273;BME280;7220;49.450;11.052;2023-01-10T07:13:25;98416.28;;;5.35;100.00
14273;BME280;7220;49.450;11.052;2023-01-10T07:17:25;98440.16;;;5.31;100.00
14273;BME280;7220;49.450;11.052;2023-01-10T07:21:26;98455.97;;;5.31;100.00
14273;BME280;7220;49.450;11.052;2023-01-10T07:25:28;98448.94;;;5.30;100.00
14273;BME280;7220;49.450;11.052;2023-01-10T07:29:29;98459.41;;;5.33;100.00
14273;BME280;7220;49.450;11.052;2023-01-10T07:33:29;98483.91;;;5.36;100.00
14273;BME280;7220;49.450;11.052;2023-01-10T07:37:30;98488.28;;;5.37;100.00
14273;BME280;7220;49.450;11.052;2023-01-10T07:41:30;98494.34;;;5.41;100.00
14273;BME280;7220;49.450;11.052;2023-01-10T07:45:31;98497.69;;;5.46;100.00
14273;BME280;7220;49.450;11.052;2023-01-10T07:49:31;98511.63;;;5.51;100.00
14273;BME280;7220;49.450;11.052;2023-01-10T07:53:31;98522.06;;;5.55;100.00
14273;BME280;7220;49.450;11.052;2023-01-10T07:57:32;98522.16;;;5.51;100.00
14273;BME280;7220;49.450;11.052;2023-01-10T08:01:32;98523.84;;;5.54;100.00
14273;BME280;7220;49.450;11.052;2023-01-10T08:05:32;98537.88;;;5.56;100.00
14273;BME280;7220;49.450;11.052;2023-01-10T08:09:33;98539.63;;;5.56;100.00
14273;BME280;7220;49.450;11.052;2023-01-10T08:13:33;98546.63;;;5.57;100.00
14273;BME280;7220;49.450;11.052;2023-01-10T08:17:34;98547.34;;;5.62;100.00
14273;BME280;7220;49.450;11.052;2023-01-10T08:21:35;98548.91;;;5.69;100.00
14273;BME280;7220;49.450;11.052;2023-01-10T08:25:35;98545.28;;;5.73;100.00
14273;BME280;7220;49.450;11.052;2023-01-10T08:29:35;98543.56;;;5.72;100.00
14273;BME280;7220;49.450;11.052;2023-01-10T08:33:37;98561.16;;;5.72;100.00
14273;BME280;7220;49.450;11.052;2023-01-10T08:37:38;98578.84;;;5.68;100.00
14273;BME280;7220;49.450;11.052;2023-01-10T08:41:38;98587.66;;;5.67;100.00
14273;BME280;7220;49.450;11.052;2023-01-10T08:45:40;98585.19;;;5.61;100.00
14273;BME280;7220;49.450;11.052;2023-01-10T08:49:40;98583.34;;;5.63;100.00
14273;BME280;7220;49.450;11.052;2023-01-10T08:53:41;98571.78;;;5.68;100.00
14273;BME280;7220;49.450;11.052;2023-01-10T08:57:41;98590.84;;;5.78;100.00
14273;BME280;7220;49.450;11.052;2023-01-10T09:01:42;98593.28;;;5.86;100.00
14273;BME280;7220;49.450;11.052;2023-01-10T09:05:42;98608.16;;;5.89;100.00
14273;BME280;7220;49.450;11.052;2023-01-10T09:09:42;98623.91;;;5.90;100.00
14273;BME280;7220;49.450;11.052;2023-01-10T09:13:43;98619.53;;;5.91;100.00
14273;BME280;7220;49.450;11.052;2023-01-10T09:17:43;98641.53;;;5.90;100.00
14273;BME280;7220;49.450;11.052;2023-01-10T09:21:44;98658.25;;;5.89;100.00
14273;BME280;7220;49.450;11.052;2023-01-10T09:25:49;98666.25;;;5.85;99.67
14273;BME280;7220;49.450;11.052;2023-01-10T09:29:49;98659.16;;;5.88;99.76
14273;BME280;7220;49.450;11.052;2023-01-10T09:33:49;98655.56;;;5.92;99.26
14273;BME280;7220;49.450;11.052;2023-01-10T09:37:53;98668.75;;;5.92;99.35
14273;BME280;7220;49.450;11.052;2023-01-10T09:46:13;98658.81;;;6.02;99.36
14273;BME280;7220;49.450;11.052;2023-01-10T09:54:28;98678.72;;;6.13;99.07
14273;BME280;7220;49.450;11.052;2023-01-10T09:58:31;98667.16;;;6.18;97.79
14273;BME280;7220;49.450;11.052;2023-01-10T10:02:35;98656.47;;;6.24;97.80
14273;BME280;7220;49.450;11.052;2023-01-10T10:06:41;98653.63;;;6.30;97.05
14273;BME280;7220;49.450;11.052;2023-01-10T10:23:40;98681.22;;;6.50;93.34
14273;BME280;7220;49.450;11.052;2023-01-10T10:36:45;98690.59;;;6.60;92.03
14273;BME280;7220;49.450;11.052;2023-01-10T10:40:47;98691.69;;;6.53;91.33
14273;BME280;7220;49.450;11.052;2023-01-10T10:45:14;98687.25;;;6.55;91.19
14273;BME280;7220;49.450;11.052;2023-01-10T10:53:39;98695.88;;;6.60;89.13
14273;BME280;7220;49.450;11.052;2023-01-10T10:57:40;98695.06;;;6.58;88.91
14273;BME280;7220;49.450;11.052;2023-01-10T11:01:41;98701.16;;;6.60;89.74
14273;BME280;7220;49.450;11.052;2023-01-10T11:05:46;98703.34;;;6.45;88.68
14273;BME280;7220;49.450;11.052;2023-01-10T11:09:47;98708.31;;;6.56;88.82
14273;BME280;7220;49.450;11.052;2023-01-10T11:13:59;98707.81;;;6.73;88.10
14273;BME280;7220;49.450;11.052;2023-01-10T11:18:13;98700.34;;;6.88;86.51
14273;BME280;7220;49.450;11.052;2023-01-10T11:22:15;98706.44;;;6.90;85.40
14273;BME280;7220;49.450;11.052;2023-01-10T11:26:37;98703.69;;;6.93;84.60
14273;BME280;7220;49.450;11.052;2023-01-10T11:30:39;98710.72;;;6.94;84.15
14273;BME280;7220;49.450;11.052;2023-01-10T11:34:41;98709.81;;;6.95;83.41
14273;BME280;7220;49.450;11.052;2023-01-10T11:39:01;98713.41;;;6.92;83.13
14273;BME280;7220;49.450;11.052;2023-01-10T11:47:22;98708.84;;;6.98;83.81
14273;BME280;7220;49.450;11.052;2023-01-10T11:51:25;98695.56;;;6.99;83.28
14273;BME280;7220;49.450;11.052;2023-01-10T11:55:30;98702.53;;;7.02;82.33
14273;BME280;7220;49.450;11.052;2023-01-10T11:59:34;98707.59;;;7.09;82.51
14273;BME280;7220;49.450;11.052;2023-01-10T12:03:36;98704.03;;;7.10;82.08
14273;BME280;7220;49.450;11.052;2023-01-10T12:08:01;98714.91;;;7.01;81.89
14273;BME280;7220;49.450;11.052;2023-01-10T12:16:32;98717.88;;;6.90;83.03
14273;BME280;7220;49.450;11.052;2023-01-10T12:20:47;98720.38;;;6.95;82.54
14273;BME280;7220;49.450;11.052;2023-01-10T12:24:49;98708.78;;;6.99;81.40
14273;BME280;7220;49.450;11.052;2023-01-10T12:28:53;98718.41;;;7.02;82.25
14273;BME280;7220;49.450;11.052;2023-01-10T12:32:59;98715.53;;;7.09;81.92
14273;BME280;7220;49.450;11.052;2023-01-10T12:41:18;98710.94;;;7.15;82.75
14273;BME280;7220;49.450;11.052;2023-01-10T12:45:46;98701.28;;;7.14;81.53
14273;BME280;7220;49.450;11.052;2023-01-10T12:54:15;98714.84;;;7.03;83.03
14273;BME280;7220;49.450;11.052;2023-01-10T13:02:20;98714.97;;;6.98;82.71
14273;BME280;7220;49.450;11.052;2023-01-10T13:06:34;98734.63;;;6.89;82.86
14273;BME280;7220;49.450;11.052;2023-01-10T13:10:41;98731.03;;;6.92;82.30
14273;BME280;7220;49.450;11.052;2023-01-10T13:14:54;98722.28;;;6.90;82.22
14273;BME280;7220;49.450;11.052;2023-01-10T13:23:14;98713.25;;;6.69;83.29
14273;BME280;7220;49.450;11.052;2023-01-10T13:27:19;98706.22;;;6.68;83.36
14273;BME280;7220;49.450;11.052;2023-01-10T13:31:30;98699.88;;;6.73;82.57
14273;BME280;7220;49.450;11.052;2023-01-10T13:35:39;98719.13;;;6.78;81.52
14273;BME280;7220;49.450;11.052;2023-01-10T13:39:43;98716.53;;;6.77;78.64
14273;BME280;7220;49.450;11.052;2023-01-10T13:44:12;98723.88;;;6.66;78.22
14273;BME280;7220;49.450;11.052;2023-01-10T13:48:27;98723.19;;;6.59;79.40
14273;BME280;7220;49.450;11.052;2023-01-10T13:52:30;98724.06;;;6.59;79.00
14273;BME280;7220;49.450;11.052;2023-01-10T13:56:35;98725.69;;;6.63;79.71
14273;BME280;7220;49.450;11.052;2023-01-10T14:08:56;98745.34;;;6.85;80.11
14273;BME280;7220;49.450;11.052;2023-01-10T14:13:04;98740.31;;;6.75;79.75
14273;BME280;7220;49.450;11.052;2023-01-10T14:17:23;98752.16;;;6.62;80.00
14273;BME280;7220;49.450;11.052;2023-01-10T14:21:28;98761.31;;;6.50;79.28
14273;BME280;7220;49.450;11.052;2023-01-10T14:25:32;98754.53;;;6.40;80.03
14273;BME280;7220;49.450;11.052;2023-01-10T14:29:33;98759.94;;;6.37;81.42
14273;BME280;7220;49.450;11.052;2023-01-10T14:33:35;98762.63;;;6.34;81.76
14273;BME280;7220;49.450;11.052;2023-01-10T14:37:39;98762.94;;;6.23;82.28
14273;BME280;7220;49.450;11.052;2023-01-10T14:41:45;98749.56;;;6.29;82.46
14273;BME280;7220;49.450;11.052;2023-01-10T14:45:59;98756.53;;;6.31;82.52
14273;BME280;7220;49.450;11.052;2023-01-10T14:50:02;98749.28;;;6.07;83.79
14273;BME280;7220;49.450;11.052;2023-01-10T14:54:12;98752.13;;;5.99;84.92
14273;BME280;7220;49.450;11.052;2023-01-10T14:58:16;98756.53;;;5.97;85.86
14273;BME280;7220;49.450;11.052;2023-01-10T15:02:21;98749.47;;;5.97;85.85
14273;BME280;7220;49.450;11.052;2023-01-10T15:06:23;98749.53;;;5.96;86.52
14273;BME280;7220;49.450;11.052;2023-01-10T15:10:29;98749.53;;;5.96;87.74
14273;BME280;7220;49.450;11.052;2023-01-10T15:14:31;98755.75;;;5.93;87.91
14273;BME280;7220;49.450;11.052;2023-01-10T15:18:38;98759.28;;;5.92;88.52
14273;BME280;7220;49.450;11.052;2023-01-10T15:22:39;98759.28;;;5.92;89.02
14273;BME280;7220;49.450;11.052;2023-01-10T15:26:41;98747.88;;;5.92;88.98
14273;BME280;7220;49.450;11.052;2023-01-10T15:30:42;98752.38;;;5.88;89.10
14273;BME280;7220;49.450;11.052;2023-01-10T15:34:47;98741.84;;;5.87;89.74
14273;BME280;7220;49.450;11.052;2023-01-10T15:38:48;98749.75;;;5.87;90.49
14273;BME280;7220;49.450;11.052;2023-01-10T15:42:48;98732.19;;;5.85;90.61
14273;BME280;7220;49.450;11.052;2023-01-10T15:46:53;98735.66;;;5.88;90.32
14273;BME280;7220;49.450;11.052;2023-01-10T15:56:02;98729.44;;;5.90;91.13
14273;BME280;7220;49.450;11.052;2023-01-10T15:59:58;98732.91;;;5.92;90.66
14273;BME280;7220;49.450;11.052;2023-01-10T16:04:02;98725.88;;;5.93;90.94
14273;BME280;7220;49.450;11.052;2023-01-10T16:08:03;98713.72;;;5.87;91.22
14273;BME280;7220;49.450;11.052;2023-01-10T16:12:23;98711.09;;;5.85;91.63
14273;BME280;7220;49.450;11.052;2023-01-10T16:16:46;98714.69;;;5.83;91.67
14273;BME280;7220;49.450;11.052;2023-01-10T16:20:48;98713.06;;;5.77;91.55
14273;BME280;7220;49.450;11.052;2023-01-10T16:24:49;98702.44;;;5.80;91.68
14273;BME280;7220;49.450;11.052;2023-01-10T16:28:51;98697.50;;;5.68;92.31
14273;BME280;7220;49.450;11.052;2023-01-10T16:32:53;98712.31;;;5.72;92.30
14273;BME280;7220;49.450;11.052;2023-01-10T16:36:53;98702.84;;;5.65;92.38
14273;BME280;7220;49.450;11.052;2023-01-10T16:41:01;98708.28;;;5.57;92.94
14273;BME280;7220;49.450;11.052;2023-01-10T16:45:21;98708.34;;;5.56;92.54
14273;BME280;7220;49.450;11.052;2023-01-10T16:49:21;98724.22;;;5.54;92.76
14273;BME280;7220;49.450;11.052;2023-01-10T16:53:21;98701.56;;;5.45;92.98
14273;BME280;7220;49.450;11.052;2023-01-10T16:57:22;98700.56;;;5.51;93.39
14273;BME280;7220;49.450;11.052;2023-01-10T17:01:27;98697.50;;;5.32;94.10
14273;BME280;7220;49.450;11.052;2023-01-10T17:05:28;98711.47;;;5.35;94.33
14273;BME280;7220;49.450;11.052;2023-01-10T17:09:29;98710.50;;;5.40;93.97
14273;BME280;7220;49.450;11.052;2023-01-10T17:13:32;98698.63;;;5.21;94.43
14273;BME280;7220;49.450;11.052;2023-01-10T17:17:33;98692.66;;;5.15;95.17
14273;BME280;7220;49.450;11.052;2023-01-10T17:21:34;98696.91;;;5.20;95.63
14273;BME280;7220;49.450;11.052;2023-01-10T17:25:34;98691.72;;;5.17;95.56
14273;BME280;7220;49.450;11.052;2023-01-10T17:29:34;98684.75;;;5.13;95.88
14273;BME280;7220;49.450;11.052;2023-01-10T17:33:35;98680.44;;;5.12;95.67
14273;BME280;7220;49.450;11.052;2023-01-10T17:37:35;98681.44;;;5.05;95.75
14273;BME280;7220;49.450;11.052;2023-01-10T17:41:36;98674.53;;;5.01;95.86
14273;BME280;7220;49.450;11.052;2023-01-10T17:45:40;98663.19;;;4.97;96.27
14273;BME280;7220;49.450;11.052;2023-01-10T17:49:40;98660.69;;;4.93;96.39
14273;BME280;7220;49.450;11.052;2023-01-10T17:53:41;98661.53;;;4.93;96.74
14273;BME280;7220;49.450;11.052;2023-01-10T17:57:41;98665.88;;;4.96;96.95
14273;BME280;7220;49.450;11.052;2023-01-10T18:01:41;98673.75;;;4.97;96.65
14273;BME280;7220;49.450;11.052;2023-01-10T18:05:56;98671.06;;;4.99;96.95
14273;BME280;7220;49.450;11.052;2023-01-10T18:09:56;98676.28;;;5.02;96.31
14273;BME280;7220;49.450;11.052;2023-01-10T18:13:57;98673.00;;;4.90;97.10
14273;BME280;7220;49.450;11.052;2023-01-10T18:17:57;98672.34;;;4.81;97.47
14273;BME280;7220;49.450;11.052;2023-01-10T18:21:57;98667.25;;;4.74;97.86
14273;BME280;7220;49.450;11.052;2023-01-10T18:26:00;98663.81;;;4.69;98.05
14273;BME280;7220;49.450;11.052;2023-01-10T18:30:02;98662.19;;;4.65;98.21
14273;BME280;7220;49.450;11.052;2023-01-10T18:34:02;98655.31;;;4.58;98.32
14273;BME280;7220;49.450;11.052;2023-01-10T18:38:03;98658.03;;;4.53;98.48
14273;BME280;7220;49.450;11.052;2023-01-10T18:42:03;98665.94;;;4.53;98.87
14273;BME280;7220;49.450;11.052;2023-01-10T18:46:10;98663.38;;;4.50;99.05
14273;BME280;7220;49.450;11.052;2023-01-10T18:50:10;98669.53;;;4.49;98.98
14273;BME280;7220;49.450;11.052;2023-01-10T18:54:11;98654.66;;;4.48;99.25
14273;BME280;7220;49.450;11.052;2023-01-10T18:58:11;98653.81;;;4.46;99.75
14273;BME280;7220;49.450;11.052;2023-01-10T19:02:12;98627.56;;;4.43;99.75
14273;BME280;7220;49.450;11.052;2023-01-10T19:06:14;98639.06;;;4.39;99.87
14273;BME280;7220;49.450;11.052;2023-01-10T19:10:16;98619.84;;;4.34;100.00
14273;BME280;7220;49.450;11.052;2023-01-10T19:14:16;98618.13;;;4.33;100.00
14273;BME280;7220;49.450;11.052;2023-01-10T19:18:18;98616.41;;;4.32;100.00
14273;BME280;7220;49.450;11.052;2023-01-10T19:22:18;98610.22;;;4.33;100.00
14273;BME280;7220;49.450;11.052;2023-01-10T19:26:22;98620.84;;;4.30;100.00
14273;BME280;7220;49.450;11.052;2023-01-10T19:30:23;98606.78;;;4.31;100.00
14273;BME280;7220;49.450;11.052;2023-01-10T19:34:23;98605.88;;;4.32;100.00
14273;BME280;7220;49.450;11.052;2023-01-10T19:38:24;98612.94;;;4.30;100.00
14273;BME280;7220;49.450;11.052;2023-01-10T19:42:24;98606.94;;;4.24;100.00
14273;BME280;7220;49.450;11.052;2023-01-10T19:46:25;98599.94;;;4.22;100.00
14273;BME280;7220;49.450;11.052;2023-01-10T19:50:26;98603.59;;;4.16;100.00
14273;BME280;7220;49.450;11.052;2023-01-10T19:54:26;98606.31;;;4.10;100.00
14273;BME280;7220;49.450;11.052;2023-01-10T19:58:26;98604.72;;;4.03;100.00
14273;BME280;7220;49.450;11.052;2023-01-10T20:02:27;98608.38;;;3.95;100.00
14273;BME280;7220;49.450;11.052;2023-01-10T20:06:30;98613.72;;;3.91;100.00
14273;BME280;7220;49.450;11.052;2023-01-10T20:10:31;98608.47;;;3.91;100.00
14273;BME280;7220;49.450;11.052;2023-01-10T20:14:31;98609.38;;;3.90;100.00
14273;BME280;7220;49.450;11.052;2023-01-10T20:18:32;98586.69;;;3.86;100.00
14273;BME280;7220;49.450;11.052;2023-01-10T20:22:32;98597.16;;;3.87;100.00
14273;BME280;7220;49.450;11.052;2023-01-10T20:26:33;98580.47;;;3.88;100.00
14273;BME280;7220;49.450;11.052;2023-01-10T20:30:35;98598.78;;;3.93;100.00
14273;BME280;7220;49.450;11.052;2023-01-10T20:34:36;98586.44;;;3.97;100.00
14273;BME280;7220;49.450;11.052;2023-01-10T20:38:37;98578.56;;;3.97;100.00
14273;BME280;7220;49.450;11.052;2023-01-10T20:42:37;98586.50;;;3.95;100.00
14273;BME280;7220;49.450;11.052;2023-01-10T20:46:37;98565.47;;;3.95;99.64
14273;BME280;7220;49.450;11.052;2023-01-10T20:50:41;98571.53;;;3.97;99.36
14273;BME280;7220;49.450;11.052;2023-01-10T20:54:41;98571.59;;;3.94;99.00
14273;BME280;7220;49.450;11.052;2023-01-10T20:58:42;98565.56;;;3.89;98.50
14273;BME280;7220;49.450;11.052;2023-01-10T21:02:43;98573.50;;;3.87;98.59
14273;BME280;7220;49.450;11.052;2023-01-10T21:06:43;98572.66;;;3.85;98.45
14273;BME280;7220;49.450;11.052;2023-01-10T21:10:44;98564.75;;;3.85;97.74
14273;BME280;7220;49.450;11.052;2023-01-10T21:14:45;98548.09;;;3.86;96.60
14273;BME280;7220;49.450;11.052;2023-01-10T21:18:47;98557.72;;;3.87;96.26
14273;BME280;7220;49.450;11.052;2023-01-10T21:22:47;98546.31;;;3.88;96.37
14273;BME280;7220;49.450;11.052;2023-01-10T21:26:47;98550.63;;;3.92;95.48
14273;BME280;7220;49.450;11.052;2023-01-10T21:30:48;98540.91;;;3.94;95.08
14273;BME280;7220;49.450;11.052;2023-01-10T21:34:48;98529.44;;;3.99;95.29
14273;BME280;7220;49.450;11.052;2023-01-10T21:38:48;98522.34;;;4.01;94.25
14273;BME280;7220;49.450;11.052;2023-01-10T21:42:49;98516.03;;;4.09;94.64
14273;BME280;7220;49.450;11.052;2023-01-10T21:46:51;98515.84;;;4.17;94.49
14273;BME280;7220;49.450;11.052;2023-01-10T21:50:51;98516.63;;;4.22;93.94
14273;BME280;7220;49.450;11.052;2023-01-10T21:54:51;98508.69;;;4.24;93.82
14273;BME280;7220;49.450;11.052;2023-01-10T21:58:52;98512.22;;;4.24;93.20
14273;BME280;7220;49.450;11.052;2023-01-10T22:02:52;98505.13;;;4.28;93.11
14273;BME280;7220;49.450;11.052;2023-01-10T22:06:52;98491.91;;;4.30;93.29
14273;BME280;7220;49.450;11.052;2023-01-10T22:10:53;98497.09;;;4.33;92.64
14273;BME280;7220;49.450;11.052;2023-01-10T22:14:53;98493.56;;;4.34;92.73
14273;BME280;7220;49.450;11.052;2023-01-10T22:18:53;98502.28;;;4.36;91.97
14273;BME280;7220;49.450;11.052;2023-01-10T22:22:54;98495.22;;;4.38;92.37
14273;BME280;7220;49.450;11.052;2023-01-10T22:26:54;98483.75;;;4.40;91.57
14273;BME280;7220;49.450;11.052;2023-01-10T22:30:55;98489.97;;;4.38;92.15
14273;BME280;7220;49.450;11.052;2023-01-10T22:34:56;98484.72;;;4.38;91.23
14273;BME280;7220;49.450;11.052;2023-01-10T22:38:57;98476.75;;;4.39;91.38
14273;BME280;7220;49.450;11.052;2023-01-10T22:42:57;98477.56;;;4.43;90.90
14273;BME280;7220;49.450;11.052;2023-01-10T22:46:57;98481.91;;;4.44;90.95
14273;BME280;7220;49.450;11.052;2023-01-10T22:50:58;98485.44;;;4.45;91.39
14273;BME280;7220;49.450;11.052;2023-01-10T22:55:00;98484.50;;;4.47;91.34
14273;BME280;7220;49.450;11.052;2023-01-10T22:59:00;98480.97;;;4.48;91.39
14273;BME280;7220;49.450;11.052;2023-01-10T23:03:00;98472.13;;;4.49;91.15
